Terminal Aerodrome Forecast
Issued by NWS Portland, ME

Home | Current Version | Previous Version | Text Only | Print | Product List | Glossary On
Versions: 1 2 3 4 5 6 7 8 9 10 11 12 13 14 15 16 17 18 19 20 21 22 23 24 25
353
FTUS41 KGYX 200211 AAA
TAFCON
TAF AMD
KCON 200211Z 2002/2024 33004KT P6SM OVC035
      TEMPO 2002/2004 SCT035
     FM201400 VRB03KT P6SM SCT035 BKN250
     FM202000 15003KT P6SM SCT025=

USA.gov is the U.S. government's official web portal to all federal, state and local government web resources and services.